createdAt,value
2022-11-29T00:09:13.103Z,100935.06
2022-11-29T00:19:14.407Z,100932.50
2022-11-29T00:29:15.817Z,100939.34
2022-11-29T00:39:17.208Z,100939.34
2022-11-29T00:49:18.645Z,100941.94
2022-11-29T00:59:20.117Z,100946.25
2022-11-29T01:09:21.478Z,100948.81
2022-11-29T01:19:22.810Z,100943.69
2022-11-29T01:29:24.547Z,100957.41
2022-11-29T01:39:25.992Z,100965.16
2022-11-29T01:49:33.159Z,100981.53
2022-11-29T01:59:38.777Z,100966.03
2022-11-29T02:09:40.103Z,100974.63
2022-11-29T02:19:59.496Z,100977.22
2022-11-29T02:30:19.106Z,100997.00
2022-11-29T02:40:39.796Z,100998.72
2022-11-29T02:50:48.308Z,101010.75
2022-11-29T03:01:02.787Z,101016.75
2022-11-29T03:11:09.302Z,101022.78
2022-11-29T03:21:22.542Z,101031.38
2022-11-29T03:31:34.912Z,101041.72
2022-11-29T03:41:46.591Z,101050.28
2022-11-29T03:52:16.961Z,101067.41
2022-11-29T04:02:27.724Z,101067.41
2022-11-29T04:12:59.462Z,101075.13
2022-11-29T04:23:37.155Z,101083.66
2022-11-29T04:34:16.196Z,101082.66
2022-11-29T04:44:32.494Z,101087.72
2022-11-29T04:55:21.647Z,101098.63
2022-11-29T05:05:36.637Z,101119.88
2022-11-29T05:16:02.542Z,101128.34
2022-11-29T05:26:38.219Z,101139.34
2022-11-29T05:37:01.658Z,101151.44
2022-11-29T05:47:05.812Z,101174.50
2022-11-29T05:57:37.880Z,101173.59
2022-11-29T06:08:13.114Z,101180.34
2022-11-29T06:18:42.486Z,101206.97
2022-11-29T06:29:04.538Z,101218.06
2022-11-29T06:39:06.307Z,101229.19
2022-11-29T06:49:37.333Z,101241.19
2022-11-29T06:59:44.349Z,101242.91
2022-11-29T07:09:47.304Z,101248.94
2022-11-29T07:20:03.636Z,101253.25
2022-11-29T07:30:14.357Z,101256.72
2022-11-29T07:40:35.952Z,101275.56
2022-11-29T07:50:40.559Z,101288.44
2022-11-29T08:00:42.696Z,101290.06
2022-11-29T08:10:45.138Z,101304.72
2022-11-29T08:20:46.568Z,101318.69
2022-11-29T08:30:47.906Z,101324.50
2022-11-29T08:40:49.418Z,101326.13
2022-11-29T08:50:51.456Z,101333.41
2022-11-29T09:00:53.129Z,101343.72
2022-11-29T09:10:54.856Z,101350.66
2022-11-29T09:20:56.204Z,101371.41
2022-11-29T09:31:07.798Z,101376.59
2022-11-29T09:41:15.678Z,101386.97
2022-11-29T09:51:16.947Z,101394.84
2022-11-29T10:01:25.513Z,101399.28
2022-11-29T10:11:34.920Z,101399.44
2022-11-29T10:21:41.547Z,101402.09
2022-11-29T10:31:46.821Z,101409.13
2022-11-29T10:41:53.763Z,101403.09
2022-11-29T10:51:55.107Z,101408.34
2022-11-29T11:01:57.641Z,101401.53
2022-11-29T11:12:01.713Z,101400.66
2022-11-29T11:22:04.025Z,101401.59
2022-11-29T11:32:14.958Z,101405.00
2022-11-29T11:42:39.278Z,101409.34
2022-11-29T11:52:50.687Z,101421.34
2022-11-29T12:02:52.375Z,101416.19
2022-11-29T12:12:55.712Z,101427.41
2022-11-29T12:23:09.373Z,101431.63
2022-11-29T12:33:42.795Z,101442.03
2022-11-29T12:44:05.231Z,101451.50
2022-11-29T12:54:34.330Z,101461.84
2022-11-29T13:04:45.816Z,101465.25
2022-11-29T13:15:06.729Z,101468.69
2022-11-29T13:25:18.927Z,101489.34
2022-11-29T13:35:46.932Z,101485.06
2022-11-29T13:45:58.537Z,101488.50
2022-11-29T13:56:01.626Z,101491.34
2022-11-29T14:06:31.136Z,101495.63
2022-11-29T14:16:43.893Z,101496.50
2022-11-29T14:26:45.251Z,101502.53
2022-11-29T14:36:51.949Z,101512.72
2022-11-29T14:47:13.863Z,101520.38
2022-11-29T14:57:49.355Z,101521.97
2022-11-29T15:08:09.319Z,101531.25
2022-11-29T15:18:19.803Z,101533.66
2022-11-29T15:28:30.473Z,101543.06
2022-11-29T15:38:46.078Z,101557.72
2022-11-29T15:48:47.483Z,101566.28
2022-11-29T15:58:49.820Z,101562.72
2022-11-29T16:08:51.902Z,101565.31
2022-11-29T16:18:53.436Z,101573.03
2022-11-29T16:28:58.622Z,101567.06
2022-11-29T16:39:22.905Z,101567.78
2022-11-29T16:49:34.435Z,101561.72
2022-11-29T16:59:38.690Z,101573.53
2022-11-29T17:09:40.072Z,101572.44
2022-11-29T17:19:41.436Z,101568.88
2022-11-29T17:29:42.750Z,101572.13
2022-11-29T17:39:47.123Z,101584.78
2022-11-29T17:49:48.946Z,101596.47
2022-11-29T17:59:50.444Z,101602.22
2022-11-29T18:09:51.803Z,101620.25
2022-11-29T18:19:53.200Z,101621.00
2022-11-29T18:29:54.580Z,101624.50
2022-11-29T18:39:57.003Z,101626.19
2022-11-29T18:49:58.316Z,101617.72
2022-11-29T18:59:59.749Z,101624.50
2022-11-29T19:10:01.146Z,101636.50
2022-11-29T19:20:02.563Z,101644.31
2022-11-29T19:30:04.544Z,101653.81
2022-11-29T19:40:06.719Z,101652.91
2022-11-29T19:50:08.614Z,101651.22
2022-11-29T20:00:10.504Z,101652.13
2022-11-29T20:10:11.998Z,101654.75
2022-11-29T20:20:13.936Z,101671.88
2022-11-29T20:30:15.426Z,101670.16
2022-11-29T20:40:20.843Z,101683.91
2022-11-29T20:50:27.962Z,101677.91
2022-11-29T21:00:29.362Z,101678.13
2022-11-29T21:10:30.702Z,101681.38
2022-11-29T21:20:32.607Z,101691.03
2022-11-29T21:30:34.216Z,101689.97
2022-11-29T21:40:35.586Z,101694.34
2022-11-29T21:50:36.943Z,101690.84
2022-11-29T22:00:38.263Z,101691.91
2022-11-29T22:10:39.610Z,101697.06
2022-11-29T22:20:40.939Z,101697.03
2022-11-29T22:30:42.287Z,101692.75
2022-11-29T22:40:43.615Z,101697.81
2022-11-29T22:50:44.925Z,101698.75
2022-11-29T23:00:46.290Z,101694.44
2022-11-29T23:10:56.441Z,101698.84
2022-11-29T23:21:09.801Z,101709.16
2022-11-29T23:31:11.190Z,101713.63
2022-11-29T23:41:13.081Z,101714.44
2022-11-29T23:51:14.967Z,101712.03
